createdAt,value
2022-12-31T00:01:27.775Z,100466.80
2022-12-31T00:06:37.528Z,100457.80
2022-12-31T00:11:38.471Z,100447.40
2022-12-31T00:16:41.751Z,100433.80
2022-12-31T00:21:42.483Z,100429.80
2022-12-31T00:26:42.183Z,100410.40
2022-12-31T00:31:42.506Z,100401.40
2022-12-31T00:36:46.272Z,100403.80
2022-12-31T00:41:45.600Z,100400.80
2022-12-31T00:46:46.009Z,100402.00
2022-12-31T00:51:46.890Z,100394.80
2022-12-31T00:56:46.813Z,100396.20
2022-12-31T01:01:48.314Z,100390.80
2022-12-31T01:06:48.801Z,100383.60
2022-12-31T01:11:51.400Z,100377.60
2022-12-31T01:16:53.580Z,100365.80
2022-12-31T01:21:55.910Z,100359.80
2022-12-31T01:26:58.074Z,100337.00
2022-12-31T01:31:59.085Z,100333.00
2022-12-31T01:36:58.723Z,100340.60
2022-12-31T01:41:57.840Z,100339.20
2022-12-31T01:47:02.147Z,100334.60
2022-12-31T01:52:08.244Z,100336.40
2022-12-31T01:57:11.423Z,100319.20
2022-12-31T02:02:11.325Z,100313.20
2022-12-31T02:07:14.067Z,100305.20
2022-12-31T02:12:14.308Z,100301.00
2022-12-31T02:17:29.192Z,100292.80
2022-12-31T02:23:03.253Z,100287.60
2022-12-31T02:28:18.090Z,100280.60
2022-12-31T02:33:29.941Z,100248.00
2022-12-31T02:38:33.947Z,100236.40
2022-12-31T02:43:35.240Z,100243.80
2022-12-31T02:49:02.460Z,100238.60
2022-12-31T02:54:24.599Z,100238.00
2022-12-31T02:59:49.534Z,100252.60
2022-12-31T03:04:54.980Z,100252.00
2022-12-31T03:09:54.601Z,100217.80
2022-12-31T03:14:54.307Z,100236.20
2022-12-31T03:20:11.345Z,100249.60
2022-12-31T03:25:33.485Z,100255.80
2022-12-31T03:30:34.563Z,100257.60
2022-12-31T03:35:36.295Z,100260.60
2022-12-31T03:40:41.317Z,100250.60
2022-12-31T03:45:40.646Z,100265.80
2022-12-31T03:50:40.418Z,100274.20
2022-12-31T03:55:39.944Z,100273.40
2022-12-31T04:00:39.136Z,100279.60
2022-12-31T04:05:39.022Z,100274.40
2022-12-31T04:10:37.612Z,100267.00
2022-12-31T04:15:36.907Z,100268.40
2022-12-31T04:20:35.738Z,100266.60
2022-12-31T04:25:35.146Z,100266.00
2022-12-31T04:30:34.828Z,100255.20
2022-12-31T04:35:33.382Z,100248.00
2022-12-31T04:40:32.211Z,100247.40
2022-12-31T04:45:31.769Z,100251.00
2022-12-31T04:50:32.172Z,100228.80
2022-12-31T04:55:34.640Z,100224.20
2022-12-31T05:00:34.929Z,100238.20
2022-12-31T05:05:34.006Z,100238.80
2022-12-31T05:10:33.728Z,100241.80
2022-12-31T05:15:32.900Z,100260.20
2022-12-31T05:20:32.327Z,100259.60
2022-12-31T05:25:32.232Z,100251.20
2022-12-31T05:30:31.890Z,100247.80
2022-12-31T05:35:32.887Z,100251.80
2022-12-31T05:40:33.056Z,100249.60
2022-12-31T05:45:32.650Z,100248.80
2022-12-31T05:50:32.908Z,100250.60
2022-12-31T05:55:34.163Z,100259.20
2022-12-31T06:00:33.629Z,100248.60
2022-12-31T06:05:33.450Z,100241.80
2022-12-31T06:10:33.201Z,100242.40
2022-12-31T06:15:33.264Z,100237.40
2022-12-31T06:20:32.764Z,100242.80
2022-12-31T06:25:32.519Z,100245.00
2022-12-31T06:30:31.993Z,100243.60
2022-12-31T06:35:30.819Z,100254.20
2022-12-31T06:40:30.451Z,100258.60
2022-12-31T06:45:29.930Z,100269.60
2022-12-31T06:50:29.064Z,100277.00
2022-12-31T06:55:33.727Z,100264.20
2022-12-31T07:00:37.191Z,100264.80
2022-12-31T07:05:52.331Z,100271.00
2022-12-31T07:11:01.456Z,100281.00
2022-12-31T07:16:23.313Z,100289.80
2022-12-31T07:21:31.848Z,100305.20
2022-12-31T07:26:56.396Z,100312.60
2022-12-31T07:32:12.827Z,100314.80
2022-12-31T07:37:27.256Z,100316.80
2022-12-31T07:42:38.363Z,100326.40
2022-12-31T07:47:39.473Z,100334.00
2022-12-31T07:52:40.115Z,100338.20
2022-12-31T07:57:49.679Z,100338.00
2022-12-31T08:03:18.578Z,100333.00
2022-12-31T08:08:34.114Z,100331.00
2022-12-31T08:13:35.357Z,100321.80
2022-12-31T08:18:36.296Z,100342.20
2022-12-31T08:23:42.910Z,100344.60
2022-12-31T08:29:03.524Z,100345.60
2022-12-31T08:34:27.601Z,100338.80
2022-12-31T08:39:43.759Z,100335.00
2022-12-31T08:45:00.141Z,100349.80
2022-12-31T08:50:01.673Z,100361.60
2022-12-31T08:55:03.366Z,100357.80
2022-12-31T09:00:14.636Z,100368.20
2022-12-31T09:05:26.320Z,100364.80
2022-12-31T09:10:37.151Z,100361.40
2022-12-31T09:15:50.355Z,100367.60
2022-12-31T09:20:51.420Z,100352.80
2022-12-31T09:26:14.793Z,100353.80
2022-12-31T09:31:24.710Z,100349.80
2022-12-31T09:36:32.485Z,100333.20
2022-12-31T09:42:13.680Z,100304.00
2022-12-31T09:48:18.232Z,100307.60
2022-12-31T09:53:50.787Z,100312.00
2022-12-31T09:59:07.043Z,100320.80
2022-12-31T10:04:44.868Z,100305.60
2022-12-31T10:10:02.479Z,100307.00
2022-12-31T10:15:31.703Z,100309.40
2022-12-31T10:20:47.986Z,100295.60
2022-12-31T10:26:22.982Z,100296.40
2022-12-31T10:31:49.851Z,100285.40
2022-12-31T10:37:17.026Z,100284.80
2022-12-31T10:43:18.864Z,100277.40
2022-12-31T10:49:35.681Z,100277.00
2022-12-31T10:55:27.740Z,100261.80
2022-12-31T11:00:31.317Z,100254.80
2022-12-31T11:06:16.351Z,100246.60
2022-12-31T11:11:31.543Z,100245.20
2022-12-31T11:16:54.027Z,100214.00
2022-12-31T11:22:22.722Z,100216.80
2022-12-31T11:27:49.888Z,100219.80
2022-12-31T11:33:16.552Z,100222.60
2022-12-31T11:38:27.353Z,100229.00
2022-12-31T11:43:39.134Z,100244.40
2022-12-31T11:48:48.396Z,100225.40
2022-12-31T11:54:26.898Z,100210.60
2022-12-31T11:59:26.997Z,100208.40
2022-12-31T12:04:28.426Z,100224.60
2022-12-31T12:09:36.049Z,100219.60
2022-12-31T12:14:55.684Z,100220.80
2022-12-31T12:20:02.162Z,100217.80
2022-12-31T12:25:08.055Z,100198.80
2022-12-31T12:30:27.420Z,100193.20
2022-12-31T12:35:33.456Z,100191.80
2022-12-31T12:40:36.365Z,100187.60
2022-12-31T12:45:51.767Z,100191.40
2022-12-31T12:50:53.184Z,100186.20
2022-12-31T12:56:06.122Z,100185.20
2022-12-31T13:01:18.567Z,100180.80
2022-12-31T13:06:41.046Z,100192.00
2022-12-31T13:11:53.151Z,100182.60
2022-12-31T13:17:09.380Z,100173.20
2022-12-31T13:22:21.505Z,100156.20
2022-12-31T13:27:29.512Z,100156.40
2022-12-31T13:32:40.232Z,100155.60
2022-12-31T13:37:44.385Z,100162.20
2022-12-31T13:42:55.024Z,100163.80
2022-12-31T13:48:02.112Z,100171.40
2022-12-31T13:53:15.624Z,100172.00
2022-12-31T13:58:31.967Z,100186.80
2022-12-31T14:03:46.753Z,100194.60
2022-12-31T14:08:46.792Z,100182.40
2022-12-31T14:14:02.852Z,100175.80
2022-12-31T14:19:16.217Z,100183.40
2022-12-31T14:24:29.158Z,100199.20
2022-12-31T14:29:42.253Z,100197.00
2022-12-31T14:34:53.784Z,100195.20
2022-12-31T14:40:11.430Z,100204.80
2022-12-31T14:45:29.554Z,100212.20
2022-12-31T14:50:34.100Z,100207.80
2022-12-31T14:55:37.225Z,100215.60
2022-12-31T15:00:53.415Z,100216.20
2022-12-31T15:06:01.818Z,100206.40
2022-12-31T15:11:30.029Z,100204.80
2022-12-31T15:16:46.504Z,100202.00
2022-12-31T15:22:06.447Z,100198.80
2022-12-31T15:27:20.507Z,100189.80
2022-12-31T15:32:26.488Z,100201.40
2022-12-31T15:37:37.297Z,100191.00
2022-12-31T15:42:51.159Z,100190.40
2022-12-31T15:47:57.847Z,100183.40
2022-12-31T15:52:59.765Z,100189.00
2022-12-31T15:58:05.378Z,100188.80
2022-12-31T16:03:04.502Z,100173.20
2022-12-31T16:08:06.098Z,100174.60
2022-12-31T16:13:06.396Z,100175.60
2022-12-31T16:18:15.773Z,100194.20
2022-12-31T16:23:27.740Z,100196.80
2022-12-31T16:28:32.768Z,100213.40
2022-12-31T16:33:34.076Z,100219.20
2022-12-31T16:38:41.119Z,100219.20
2022-12-31T16:43:44.825Z,100209.20
2022-12-31T16:48:52.329Z,100211.20
2022-12-31T16:53:53.476Z,100206.80
2022-12-31T16:58:58.901Z,100204.20
2022-12-31T17:04:06.139Z,100197.00
2022-12-31T17:09:20.876Z,100200.80
2022-12-31T17:14:24.855Z,100199.00
2022-12-31T17:19:40.094Z,100202.60
2022-12-31T17:24:42.263Z,100219.60
2022-12-31T17:29:42.119Z,100220.80
2022-12-31T17:34:52.675Z,100226.60
2022-12-31T17:40:49.989Z,100245.60
2022-12-31T17:45:25.344Z,100244.60
2022-12-31T17:50:29.740Z,100227.60
2022-12-31T17:55:30.772Z,100234.60
2022-12-31T18:00:33.417Z,100246.80
2022-12-31T18:05:33.510Z,100237.80
2022-12-31T18:10:38.286Z,100236.40
2022-12-31T18:15:36.845Z,100250.60
2022-12-31T18:20:36.275Z,100263.00
2022-12-31T18:30:34.116Z,100258.80
2022-12-31T18:36:07.228Z,100260.20
2022-12-31T18:40:59.768Z,100270.40
2022-12-31T18:46:02.381Z,100269.80
2022-12-31T18:51:03.778Z,100266.00
2022-12-31T18:56:03.345Z,100261.00
2022-12-31T19:01:02.676Z,100254.80
2022-12-31T19:06:02.156Z,100267.00
2022-12-31T19:11:02.767Z,100264.40
2022-12-31T19:16:04.082Z,100283.00
2022-12-31T19:21:05.091Z,100291.80
2022-12-31T19:26:04.407Z,100284.80
2022-12-31T19:31:08.041Z,100269.20
2022-12-31T19:36:15.112Z,100286.40
2022-12-31T19:41:21.181Z,100280.60
2022-12-31T19:46:21.697Z,100296.40
2022-12-31T19:51:23.564Z,100292.20
2022-12-31T19:56:24.884Z,100285.00
2022-12-31T20:01:28.710Z,100286.40
2022-12-31T20:06:31.258Z,100277.60
2022-12-31T20:11:31.512Z,100278.20
2022-12-31T20:16:32.015Z,100276.00
2022-12-31T20:21:35.748Z,100289.80
2022-12-31T20:26:35.108Z,100286.40
2022-12-31T20:31:34.651Z,100287.80
2022-12-31T20:36:33.883Z,100277.00
2022-12-31T20:41:33.547Z,100285.00
2022-12-31T20:46:36.826Z,100294.40
2022-12-31T20:51:38.117Z,100302.20
2022-12-31T20:56:40.868Z,100302.80
2022-12-31T21:02:19.314Z,100292.20
2022-12-31T21:07:00.586Z,100298.00
2022-12-31T21:12:17.165Z,100311.60
2022-12-31T21:17:16.666Z,100303.80
2022-12-31T21:22:16.161Z,100295.40
2022-12-31T21:27:18.492Z,100304.40
2022-12-31T21:32:18.197Z,100311.00
2022-12-31T21:37:17.561Z,100308.60
2022-12-31T21:42:18.296Z,100309.40
2022-12-31T21:47:39.480Z,100304.00
2022-12-31T21:52:42.356Z,100305.40
2022-12-31T21:58:15.629Z,100304.60
2022-12-31T22:03:20.108Z,100304.20
2022-12-31T22:08:19.865Z,100305.00
2022-12-31T22:13:20.095Z,100300.40
2022-12-31T22:18:20.558Z,100304.40
2022-12-31T22:23:20.538Z,100300.00
2022-12-31T22:33:39.309Z,100304.00
2022-12-31T22:38:39.273Z,100293.20
2022-12-31T22:43:41.775Z,100297.60
2022-12-31T22:48:42.928Z,100285.40
2022-12-31T22:53:44.787Z,100290.40
2022-12-31T22:58:45.602Z,100306.80
2022-12-31T23:03:46.680Z,100293.00
2022-12-31T23:09:07.247Z,100294.20
2022-12-31T23:14:30.133Z,100290.00
2022-12-31T23:19:47.524Z,100299.00
2022-12-31T23:24:47.156Z,100302.20
2022-12-31T23:29:47.692Z,100314.60
2022-12-31T23:34:48.245Z,100303.40
2022-12-31T23:39:47.890Z,100299.40
2022-12-31T23:44:49.663Z,100300.80
2022-12-31T23:49:49.419Z,100298.20
2022-12-31T23:54:48.877Z,100313.60
2022-12-31T23:59:49.403Z,100287.00
